sensor_id;sensor_type;location;lat;lon;timestamp;temperature;humidity
57652;DHT22;43480;53.116;6.734;2022-07-21T00:01:55;20.50;99.90
57652;DHT22;43480;53.116;6.734;2022-07-21T00:04:21;20.50;99.90
57652;DHT22;43480;53.116;6.734;2022-07-21T00:06:47;20.50;99.90
57652;DHT22;43480;53.116;6.734;2022-07-21T00:09:13;20.50;99.90
57652;DHT22;43480;53.116;6.734;2022-07-21T00:11:39;20.50;99.90
57652;DHT22;43480;53.116;6.734;2022-07-21T00:14:06;20.50;99.90
57652;DHT22;43480;53.116;6.734;2022-07-21T00:16:32;20.50;99.90
57652;DHT22;43480;53.116;6.734;2022-07-21T00:18:58;20.50;99.90
57652;DHT22;43480;53.116;6.734;2022-07-21T00:21:25;20.50;99.90
57652;DHT22;43480;53.116;6.734;2022-07-21T00:23:51;20.50;99.90
57652;DHT22;43480;53.116;6.734;2022-07-21T00:26:16;20.50;99.90
57652;DHT22;43480;53.116;6.734;2022-07-21T00:28:42;20.50;99.90
57652;DHT22;43480;53.116;6.734;2022-07-21T00:31:07;20.50;99.90
57652;DHT22;43480;53.116;6.734;2022-07-21T00:33:33;20.50;99.90
57652;DHT22;43480;53.116;6.734;2022-07-21T00:35:58;20.40;99.90
57652;DHT22;43480;53.116;6.734;2022-07-21T00:38:24;20.40;99.90
57652;DHT22;43480;53.116;6.734;2022-07-21T00:40:49;20.40;99.90
57652;DHT22;43480;53.116;6.734;2022-07-21T00:43:15;20.40;99.90
57652;DHT22;43480;53.116;6.734;2022-07-21T00:45:40;20.40;99.90
57652;DHT22;43480;53.116;6.734;2022-07-21T00:48:06;20.40;99.90
57652;DHT22;43480;53.116;6.734;2022-07-21T00:50:32;20.30;99.90
57652;DHT22;43480;53.116;6.734;2022-07-21T00:52:57;20.30;99.90
57652;DHT22;43480;53.116;6.734;2022-07-21T00:55:23;20.30;99.90
57652;DHT22;43480;53.116;6.734;2022-07-21T00:57:50;20.20;99.90
57652;DHT22;43480;53.116;6.734;2022-07-21T01:00:17;20.20;99.90
57652;DHT22;43480;53.116;6.734;2022-07-21T01:02:43;20.10;99.90
57652;DHT22;43480;53.116;6.734;2022-07-21T01:05:09;20.10;99.90
57652;DHT22;43480;53.116;6.734;2022-07-21T01:07:38;20.00;99.90
57652;DHT22;43480;53.116;6.734;2022-07-21T01:10:04;19.90;99.90
57652;DHT22;43480;53.116;6.734;2022-07-21T01:12:29;19.90;99.90
57652;DHT22;43480;53.116;6.734;2022-07-21T01:14:55;19.80;99.90
57652;DHT22;43480;53.116;6.734;2022-07-21T01:17:20;19.80;99.90
57652;DHT22;43480;53.116;6.734;2022-07-21T01:19:46;19.80;99.90
57652;DHT22;43480;53.116;6.734;2022-07-21T01:22:12;19.70;99.90
57652;DHT22;43480;53.116;6.734;2022-07-21T01:24:38;19.70;99.90
57652;DHT22;43480;53.116;6.734;2022-07-21T01:27:04;19.70;99.90
57652;DHT22;43480;53.116;6.734;2022-07-21T01:29:29;19.70;99.90
57652;DHT22;43480;53.116;6.734;2022-07-21T01:31:55;19.70;99.90
57652;DHT22;43480;53.116;6.734;2022-07-21T01:34:20;19.60;99.90
57652;DHT22;43480;53.116;6.734;2022-07-21T01:36:46;19.60;99.90
57652;DHT22;43480;53.116;6.734;2022-07-21T01:39:12;19.60;99.90
57652;DHT22;43480;53.116;6.734;2022-07-21T01:41:56;19.50;99.90
57652;DHT22;43480;53.116;6.734;2022-07-21T01:44:22;19.50;99.90
57652;DHT22;43480;53.116;6.734;2022-07-21T01:46:49;19.50;99.90
57652;DHT22;43480;53.116;6.734;2022-07-21T01:49:15;19.50;99.90
57652;DHT22;43480;53.116;6.734;2022-07-21T01:51:41;19.40;99.90
57652;DHT22;43480;53.116;6.734;2022-07-21T01:54:07;19.40;99.90
57652;DHT22;43480;53.116;6.734;2022-07-21T01:56:33;19.40;99.90
57652;DHT22;43480;53.116;6.734;2022-07-21T01:58:59;19.40;99.90
57652;DHT22;43480;53.116;6.734;2022-07-21T02:01:25;19.30;99.90
57652;DHT22;43480;53.116;6.734;2022-07-21T02:03:54;19.30;99.90
57652;DHT22;43480;53.116;6.734;2022-07-21T02:06:20;19.30;99.90
57652;DHT22;43480;53.116;6.734;2022-07-21T02:08:46;19.30;99.90
57652;DHT22;43480;53.116;6.734;2022-07-21T02:11:13;19.20;99.90
57652;DHT22;43480;53.116;6.734;2022-07-21T02:13:38;19.30;99.90
57652;DHT22;43480;53.116;6.734;2022-07-21T02:16:04;19.30;99.90
57652;DHT22;43480;53.116;6.734;2022-07-21T02:18:30;19.20;99.90
57652;DHT22;43480;53.116;6.734;2022-07-21T02:20:55;19.20;99.90
57652;DHT22;43480;53.116;6.734;2022-07-21T02:23:22;19.20;99.90
57652;DHT22;43480;53.116;6.734;2022-07-21T02:25:47;19.20;99.90
57652;DHT22;43480;53.116;6.734;2022-07-21T02:28:13;19.20;99.90
57652;DHT22;43480;53.116;6.734;2022-07-21T02:30:39;19.20;99.90
57652;DHT22;43480;53.116;6.734;2022-07-21T02:33:05;19.20;99.90
57652;DHT22;43480;53.116;6.734;2022-07-21T02:35:31;19.10;99.90
57652;DHT22;43480;53.116;6.734;2022-07-21T02:37:56;19.10;99.90
57652;DHT22;43480;53.116;6.734;2022-07-21T02:40:22;19.10;99.90
57652;DHT22;43480;53.116;6.734;2022-07-21T02:42:47;19.20;99.90
57652;DHT22;43480;53.116;6.734;2022-07-21T02:45:13;19.10;99.90
57652;DHT22;43480;53.116;6.734;2022-07-21T02:47:55;19.10;99.90
57652;DHT22;43480;53.116;6.734;2022-07-21T02:50:22;19.10;99.90
57652;DHT22;43480;53.116;6.734;2022-07-21T02:52:48;19.20;99.90
57652;DHT22;43480;53.116;6.734;2022-07-21T02:55:15;19.20;99.90
57652;DHT22;43480;53.116;6.734;2022-07-21T02:57:40;19.10;99.90
57652;DHT22;43480;53.116;6.734;2022-07-21T03:00:07;19.20;99.90
57652;DHT22;43480;53.116;6.734;2022-07-21T03:02:33;19.20;99.90
57652;DHT22;43480;53.116;6.734;2022-07-21T03:04:59;19.20;99.90
57652;DHT22;43480;53.116;6.734;2022-07-21T03:07:24;19.20;99.90
57652;DHT22;43480;53.116;6.734;2022-07-21T03:09:50;19.20;99.90
57652;DHT22;43480;53.116;6.734;2022-07-21T03:12:15;19.20;99.90
57652;DHT22;43480;53.116;6.734;2022-07-21T03:14:41;19.20;99.90
57652;DHT22;43480;53.116;6.734;2022-07-21T03:17:06;19.20;99.90
57652;DHT22;43480;53.116;6.734;2022-07-21T03:19:32;19.20;99.90
57652;DHT22;43480;53.116;6.734;2022-07-21T03:21:57;19.20;99.90
57652;DHT22;43480;53.116;6.734;2022-07-21T03:24:23;19.20;99.90
57652;DHT22;43480;53.116;6.734;2022-07-21T03:26:48;19.20;99.90
57652;DHT22;43480;53.116;6.734;2022-07-21T03:29:14;19.20;99.90
57652;DHT22;43480;53.116;6.734;2022-07-21T03:31:40;19.20;99.90
57652;DHT22;43480;53.116;6.734;2022-07-21T03:34:06;19.20;99.90
57652;DHT22;43480;53.116;6.734;2022-07-21T03:36:31;19.20;99.90
57652;DHT22;43480;53.116;6.734;2022-07-21T03:38:57;19.20;99.90
57652;DHT22;43480;53.116;6.734;2022-07-21T03:41:22;19.20;99.90
57652;DHT22;43480;53.116;6.734;2022-07-21T03:43:48;19.20;99.90
57652;DHT22;43480;53.116;6.734;2022-07-21T03:46:13;19.20;99.90
57652;DHT22;43480;53.116;6.734;2022-07-21T03:48:39;19.20;99.90
57652;DHT22;43480;53.116;6.734;2022-07-21T03:51:05;19.10;99.90
57652;DHT22;43480;53.116;6.734;2022-07-21T03:53:30;19.10;99.90
57652;DHT22;43480;53.116;6.734;2022-07-21T03:55:56;19.10;99.90
57652;DHT22;43480;53.116;6.734;2022-07-21T03:58:21;19.10;99.90
57652;DHT22;43480;53.116;6.734;2022-07-21T04:00:47;19.10;99.90
57652;DHT22;43480;53.116;6.734;2022-07-21T04:03:12;19.10;99.90
57652;DHT22;43480;53.116;6.734;2022-07-21T04:05:39;19.10;99.90
57652;DHT22;43480;53.116;6.734;2022-07-21T04:08:05;19.10;99.90
57652;DHT22;43480;53.116;6.734;2022-07-21T04:10:32;19.10;99.90
57652;DHT22;43480;53.116;6.734;2022-07-21T04:12:58;19.10;99.90
57652;DHT22;43480;53.116;6.734;2022-07-21T04:15:24;19.10;99.90
57652;DHT22;43480;53.116;6.734;2022-07-21T04:17:49;19.10;99.90
57652;DHT22;43480;53.116;6.734;2022-07-21T04:20:15;19.10;99.90
57652;DHT22;43480;53.116;6.734;2022-07-21T04:22:42;19.10;99.90
57652;DHT22;43480;53.116;6.734;2022-07-21T04:25:08;19.20;99.90
57652;DHT22;43480;53.116;6.734;2022-07-21T04:27:34;19.10;99.90
57652;DHT22;43480;53.116;6.734;2022-07-21T04:29:59;19.20;99.90
57652;DHT22;43480;53.116;6.734;2022-07-21T04:32:25;19.20;99.90
57652;DHT22;43480;53.116;6.734;2022-07-21T04:34:51;19.20;99.90
57652;DHT22;43480;53.116;6.734;2022-07-21T04:37:16;19.20;99.90
57652;DHT22;43480;53.116;6.734;2022-07-21T04:39:42;19.20;99.90
57652;DHT22;43480;53.116;6.734;2022-07-21T04:42:07;19.20;99.90
57652;DHT22;43480;53.116;6.734;2022-07-21T04:44:33;19.20;99.90
57652;DHT22;43480;53.116;6.734;2022-07-21T04:46:58;19.30;99.90
57652;DHT22;43480;53.116;6.734;2022-07-21T04:49:24;19.30;99.90
57652;DHT22;43480;53.116;6.734;2022-07-21T04:51:49;19.30;99.90
57652;DHT22;43480;53.116;6.734;2022-07-21T04:54:15;19.30;99.90
57652;DHT22;43480;53.116;6.734;2022-07-21T04:56:41;19.30;99.90
57652;DHT22;43480;53.116;6.734;2022-07-21T04:59:07;19.40;99.90
57652;DHT22;43480;53.116;6.734;2022-07-21T05:01:32;19.50;99.90
57652;DHT22;43480;53.116;6.734;2022-07-21T05:03:58;19.60;99.90
57652;DHT22;43480;53.116;6.734;2022-07-21T05:06:23;19.60;99.90
57652;DHT22;43480;53.116;6.734;2022-07-21T05:08:49;19.60;99.90
57652;DHT22;43480;53.116;6.734;2022-07-21T05:11:14;19.70;99.90
57652;DHT22;43480;53.116;6.734;2022-07-21T05:13:40;19.70;99.90
57652;DHT22;43480;53.116;6.734;2022-07-21T05:16:05;19.70;99.90
57652;DHT22;43480;53.116;6.734;2022-07-21T05:18:31;19.70;99.90
57652;DHT22;43480;53.116;6.734;2022-07-21T05:20:57;19.70;99.90
57652;DHT22;43480;53.116;6.734;2022-07-21T05:23:22;19.70;99.90
57652;DHT22;43480;53.116;6.734;2022-07-21T05:25:48;19.70;99.90
57652;DHT22;43480;53.116;6.734;2022-07-21T05:28:13;19.70;99.90
57652;DHT22;43480;53.116;6.734;2022-07-21T05:30:39;19.80;99.90
57652;DHT22;43480;53.116;6.734;2022-07-21T05:33:04;19.80;99.90
57652;DHT22;43480;53.116;6.734;2022-07-21T05:35:30;19.90;99.90
57652;DHT22;43480;53.116;6.734;2022-07-21T05:37:56;19.90;99.90
57652;DHT22;43480;53.116;6.734;2022-07-21T05:40:21;19.90;99.90
57652;DHT22;43480;53.116;6.734;2022-07-21T05:42:47;19.90;99.90
57652;DHT22;43480;53.116;6.734;2022-07-21T05:45:13;19.90;99.90
57652;DHT22;43480;53.116;6.734;2022-07-21T05:47:38;19.90;99.90
57652;DHT22;43480;53.116;6.734;2022-07-21T05:50:04;19.90;99.90
57652;DHT22;43480;53.116;6.734;2022-07-21T05:52:30;19.90;99.90
57652;DHT22;43480;53.116;6.734;2022-07-21T05:54:55;19.90;99.90
57652;DHT22;43480;53.116;6.734;2022-07-21T05:57:21;19.90;99.90
57652;DHT22;43480;53.116;6.734;2022-07-21T05:59:46;19.90;99.90
57652;DHT22;43480;53.116;6.734;2022-07-21T06:02:12;20.00;99.90
57652;DHT22;43480;53.116;6.734;2022-07-21T06:04:37;20.00;99.90
57652;DHT22;43480;53.116;6.734;2022-07-21T06:07:03;20.20;99.90
57652;DHT22;43480;53.116;6.734;2022-07-21T06:09:28;20.30;99.90
57652;DHT22;43480;53.116;6.734;2022-07-21T06:11:54;20.30;99.90
57652;DHT22;43480;53.116;6.734;2022-07-21T06:14:19;20.50;99.90
57652;DHT22;43480;53.116;6.734;2022-07-21T06:16:45;20.70;99.90
57652;DHT22;43480;53.116;6.734;2022-07-21T06:19:10;20.80;99.90
57652;DHT22;43480;53.116;6.734;2022-07-21T06:21:36;20.90;99.90
57652;DHT22;43480;53.116;6.734;2022-07-21T06:24:01;21.00;99.90
57652;DHT22;43480;53.116;6.734;2022-07-21T06:26:27;21.00;99.90
57652;DHT22;43480;53.116;6.734;2022-07-21T06:28:53;21.10;99.90
57652;DHT22;43480;53.116;6.734;2022-07-21T06:31:19;21.10;99.90
57652;DHT22;43480;53.116;6.734;2022-07-21T06:33:44;21.10;99.90
57652;DHT22;43480;53.116;6.734;2022-07-21T06:36:10;21.20;99.90
57652;DHT22;43480;53.116;6.734;2022-07-21T06:38:35;21.10;99.90
57652;DHT22;43480;53.116;6.734;2022-07-21T06:41:01;21.00;99.90
57652;DHT22;43480;53.116;6.734;2022-07-21T06:43:26;20.90;99.90
57652;DHT22;43480;53.116;6.734;2022-07-21T06:45:52;20.80;99.90
57652;DHT22;43480;53.116;6.734;2022-07-21T06:48:18;20.70;99.90
57652;DHT22;43480;53.116;6.734;2022-07-21T06:50:43;20.70;99.90
57652;DHT22;43480;53.116;6.734;2022-07-21T06:53:09;20.70;99.90
57652;DHT22;43480;53.116;6.734;2022-07-21T06:55:35;20.60;99.90
57652;DHT22;43480;53.116;6.734;2022-07-21T06:58:14;20.60;99.90
57652;DHT22;43480;53.116;6.734;2022-07-21T07:00:39;20.50;99.90
57652;DHT22;43480;53.116;6.734;2022-07-21T07:03:05;20.50;99.90
57652;DHT22;43480;53.116;6.734;2022-07-21T07:05:30;20.50;99.90
57652;DHT22;43480;53.116;6.734;2022-07-21T07:07:56;20.40;99.90
57652;DHT22;43480;53.116;6.734;2022-07-21T07:10:22;20.40;99.90
57652;DHT22;43480;53.116;6.734;2022-07-21T07:12:48;20.40;99.90
57652;DHT22;43480;53.116;6.734;2022-07-21T07:15:13;20.40;99.90
57652;DHT22;43480;53.116;6.734;2022-07-21T07:17:39;20.30;99.90
57652;DHT22;43480;53.116;6.734;2022-07-21T07:20:04;20.40;99.90
57652;DHT22;43480;53.116;6.734;2022-07-21T07:22:32;20.40;99.90
57652;DHT22;43480;53.116;6.734;2022-07-21T07:24:57;20.50;99.90
57652;DHT22;43480;53.116;6.734;2022-07-21T07:27:23;20.50;99.90
57652;DHT22;43480;53.116;6.734;2022-07-21T07:29:48;20.50;99.90
57652;DHT22;43480;53.116;6.734;2022-07-21T07:32:14;20.60;99.90
57652;DHT22;43480;53.116;6.734;2022-07-21T07:34:39;20.60;99.90
57652;DHT22;43480;53.116;6.734;2022-07-21T07:37:05;20.60;99.90
57652;DHT22;43480;53.116;6.734;2022-07-21T07:39:30;20.60;99.90
57652;DHT22;43480;53.116;6.734;2022-07-21T07:41:56;20.50;99.90
57652;DHT22;43480;53.116;6.734;2022-07-21T07:44:22;20.60;99.90
57652;DHT22;43480;53.116;6.734;2022-07-21T07:46:47;20.60;99.90
57652;DHT22;43480;53.116;6.734;2022-07-21T07:49:13;20.60;99.90
57652;DHT22;43480;53.116;6.734;2022-07-21T07:51:38;20.70;99.90
57652;DHT22;43480;53.116;6.734;2022-07-21T07:54:04;20.70;99.90
57652;DHT22;43480;53.116;6.734;2022-07-21T07:56:30;20.70;99.90
57652;DHT22;43480;53.116;6.734;2022-07-21T07:58:55;20.80;99.90
57652;DHT22;43480;53.116;6.734;2022-07-21T08:01:21;20.90;99.90
57652;DHT22;43480;53.116;6.734;2022-07-21T08:03:47;20.90;99.90
57652;DHT22;43480;53.116;6.734;2022-07-21T08:06:12;20.90;99.90
57652;DHT22;43480;53.116;6.734;2022-07-21T08:08:38;20.80;99.90
57652;DHT22;43480;53.116;6.734;2022-07-21T08:11:03;20.80;99.90
57652;DHT22;43480;53.116;6.734;2022-07-21T08:13:29;20.90;99.90
57652;DHT22;43480;53.116;6.734;2022-07-21T08:15:55;20.90;99.90
57652;DHT22;43480;53.116;6.734;2022-07-21T08:18:20;21.00;99.90
57652;DHT22;43480;53.116;6.734;2022-07-21T08:20:46;21.00;99.90
57652;DHT22;43480;53.116;6.734;2022-07-21T08:23:12;21.10;99.90
57652;DHT22;43480;53.116;6.734;2022-07-21T08:25:38;21.10;99.90
57652;DHT22;43480;53.116;6.734;2022-07-21T08:28:03;21.10;99.90
57652;DHT22;43480;53.116;6.734;2022-07-21T08:30:29;21.20;99.90
57652;DHT22;43480;53.116;6.734;2022-07-21T08:32:55;21.40;99.90
57652;DHT22;43480;53.116;6.734;2022-07-21T08:35:20;21.50;99.90
57652;DHT22;43480;53.116;6.734;2022-07-21T08:37:53;21.70;99.90
57652;DHT22;43480;53.116;6.734;2022-07-21T08:40:18;21.80;99.90
57652;DHT22;43480;53.116;6.734;2022-07-21T08:42:47;21.90;99.90
57652;DHT22;43480;53.116;6.734;2022-07-21T08:45:12;22.10;99.90
57652;DHT22;43480;53.116;6.734;2022-07-21T08:47:38;22.30;99.90
57652;DHT22;43480;53.116;6.734;2022-07-21T08:50:04;22.60;99.90
57652;DHT22;43480;53.116;6.734;2022-07-21T08:52:30;22.70;99.90
57652;DHT22;43480;53.116;6.734;2022-07-21T08:54:56;22.70;99.90
57652;DHT22;43480;53.116;6.734;2022-07-21T08:57:22;22.90;99.90
57652;DHT22;43480;53.116;6.734;2022-07-21T08:59:47;23.10;99.90
57652;DHT22;43480;53.116;6.734;2022-07-21T09:02:30;23.20;99.90
57652;DHT22;43480;53.116;6.734;2022-07-21T09:04:55;23.30;99.90
57652;DHT22;43480;53.116;6.734;2022-07-21T09:07:21;23.30;99.90
57652;DHT22;43480;53.116;6.734;2022-07-21T09:09:57;23.30;99.90
57652;DHT22;43480;53.116;6.734;2022-07-21T09:12:24;23.30;99.90
57652;DHT22;43480;53.116;6.734;2022-07-21T09:14:50;23.20;99.90
57652;DHT22;43480;53.116;6.734;2022-07-21T09:17:16;23.20;99.90
57652;DHT22;43480;53.116;6.734;2022-07-21T09:19:43;23.20;99.90
57652;DHT22;43480;53.116;6.734;2022-07-21T09:22:12;23.20;99.90
57652;DHT22;43480;53.116;6.734;2022-07-21T09:24:38;23.30;99.90
57652;DHT22;43480;53.116;6.734;2022-07-21T09:27:14;23.50;99.90
57652;DHT22;43480;53.116;6.734;2022-07-21T09:29:41;23.70;99.90
57652;DHT22;43480;53.116;6.734;2022-07-21T09:32:17;23.90;99.90
57652;DHT22;43480;53.116;6.734;2022-07-21T09:34:44;23.90;99.90
57652;DHT22;43480;53.116;6.734;2022-07-21T09:37:10;24.00;99.90
57652;DHT22;43480;53.116;6.734;2022-07-21T09:39:42;24.00;99.90
57652;DHT22;43480;53.116;6.734;2022-07-21T09:42:15;24.00;99.90
57652;DHT22;43480;53.116;6.734;2022-07-21T09:44:41;24.10;99.90
57652;DHT22;43480;53.116;6.734;2022-07-21T09:47:11;24.00;99.90
57652;DHT22;43480;53.116;6.734;2022-07-21T09:49:38;24.00;99.90
57652;DHT22;43480;53.116;6.734;2022-07-21T09:52:17;24.20;99.90
57652;DHT22;43480;53.116;6.734;2022-07-21T09:54:43;24.40;99.90
57652;DHT22;43480;53.116;6.734;2022-07-21T09:57:09;24.60;99.90
57652;DHT22;43480;53.116;6.734;2022-07-21T09:59:35;24.70;99.90
57652;DHT22;43480;53.116;6.734;2022-07-21T10:02:01;24.70;99.90
57652;DHT22;43480;53.116;6.734;2022-07-21T10:04:27;24.60;99.90
57652;DHT22;43480;53.116;6.734;2022-07-21T10:06:53;24.50;99.90
57652;DHT22;43480;53.116;6.734;2022-07-21T10:09:19;24.40;99.90
57652;DHT22;43480;53.116;6.734;2022-07-21T10:11:45;24.30;99.90
57652;DHT22;43480;53.116;6.734;2022-07-21T10:14:11;24.30;99.90
57652;DHT22;43480;53.116;6.734;2022-07-21T10:16:36;24.20;99.90
57652;DHT22;43480;53.116;6.734;2022-07-21T10:19:10;23.90;99.90
57652;DHT22;43480;53.116;6.734;2022-07-21T10:24:08;23.50;99.90
57652;DHT22;43480;53.116;6.734;2022-07-21T10:26:35;23.40;99.90
57652;DHT22;43480;53.116;6.734;2022-07-21T10:29:00;23.30;99.90
57652;DHT22;43480;53.116;6.734;2022-07-21T10:31:26;23.30;99.90
57652;DHT22;43480;53.116;6.734;2022-07-21T10:33:55;23.30;99.90
57652;DHT22;43480;53.116;6.734;2022-07-21T10:41:46;23.20;99.90
57652;DHT22;43480;53.116;6.734;2022-07-21T10:44:37;23.20;99.90
57652;DHT22;43480;53.116;6.734;2022-07-21T10:55:16;23.10;99.90
57652;DHT22;43480;53.116;6.734;2022-07-21T11:00:28;22.90;99.90
57652;DHT22;43480;53.116;6.734;2022-07-21T11:02:58;22.80;99.90
57652;DHT22;43480;53.116;6.734;2022-07-21T11:05:25;22.80;99.90
57652;DHT22;43480;53.116;6.734;2022-07-21T11:08:11;22.80;99.90
57652;DHT22;43480;53.116;6.734;2022-07-21T11:10:37;22.70;99.90
57652;DHT22;43480;53.116;6.734;2022-07-21T11:13:03;22.80;99.90
57652;DHT22;43480;53.116;6.734;2022-07-21T11:18:20;22.80;99.90
57652;DHT22;43480;53.116;6.734;2022-07-21T11:21:00;22.80;99.90
57652;DHT22;43480;53.116;6.734;2022-07-21T11:23:35;22.90;99.90
57652;DHT22;43480;53.116;6.734;2022-07-21T11:26:01;23.00;99.90
57652;DHT22;43480;53.116;6.734;2022-07-21T11:28:26;23.10;99.90
57652;DHT22;43480;53.116;6.734;2022-07-21T11:33:41;23.20;99.90
57652;DHT22;43480;53.116;6.734;2022-07-21T11:36:07;23.10;99.90
57652;DHT22;43480;53.116;6.734;2022-07-21T11:38:33;23.20;99.90
57652;DHT22;43480;53.116;6.734;2022-07-21T11:41:12;23.20;99.90
57652;DHT22;43480;53.116;6.734;2022-07-21T11:43:41;23.30;99.90
57652;DHT22;43480;53.116;6.734;2022-07-21T11:46:07;23.30;99.90
57652;DHT22;43480;53.116;6.734;2022-07-21T11:48:32;23.40;99.90
57652;DHT22;43480;53.116;6.734;2022-07-21T11:51:01;23.50;99.90
57652;DHT22;43480;53.116;6.734;2022-07-21T11:53:28;23.50;99.90
57652;DHT22;43480;53.116;6.734;2022-07-21T11:55:53;23.60;99.90
57652;DHT22;43480;53.116;6.734;2022-07-21T11:58:19;23.60;99.90
57652;DHT22;43480;53.116;6.734;2022-07-21T12:00:45;23.70;99.90
57652;DHT22;43480;53.116;6.734;2022-07-21T12:03:12;23.70;99.90
57652;DHT22;43480;53.116;6.734;2022-07-21T12:05:41;23.70;99.90
57652;DHT22;43480;53.116;6.734;2022-07-21T12:08:07;23.80;99.90
57652;DHT22;43480;53.116;6.734;2022-07-21T12:10:33;23.80;99.90
57652;DHT22;43480;53.116;6.734;2022-07-21T12:12:59;23.90;99.90
57652;DHT22;43480;53.116;6.734;2022-07-21T12:15:26;24.00;99.90
57652;DHT22;43480;53.116;6.734;2022-07-21T12:17:57;24.00;99.90
57652;DHT22;43480;53.116;6.734;2022-07-21T12:20:27;24.10;99.90
57652;DHT22;43480;53.116;6.734;2022-07-21T12:22:54;24.20;99.90
57652;DHT22;43480;53.116;6.734;2022-07-21T12:28:15;24.50;99.90
57652;DHT22;43480;53.116;6.734;2022-07-21T12:30:41;25.00;99.90
57652;DHT22;43480;53.116;6.734;2022-07-21T12:33:08;25.40;99.90
57652;DHT22;43480;53.116;6.734;2022-07-21T12:35:35;25.60;99.90
57652;DHT22;43480;53.116;6.734;2022-07-21T12:38:02;25.60;99.90
57652;DHT22;43480;53.116;6.734;2022-07-21T12:40:29;25.60;99.90
57652;DHT22;43480;53.116;6.734;2022-07-21T12:43:08;25.50;99.90
57652;DHT22;43480;53.116;6.734;2022-07-21T12:45:44;25.60;99.90
57652;DHT22;43480;53.116;6.734;2022-07-21T12:48:11;25.60;99.90
57652;DHT22;43480;53.116;6.734;2022-07-21T12:50:37;25.50;99.90
57652;DHT22;43480;53.116;6.734;2022-07-21T12:53:08;25.30;99.90
57652;DHT22;43480;53.116;6.734;2022-07-21T12:55:33;25.10;99.90
57652;DHT22;43480;53.116;6.734;2022-07-21T12:57:59;25.00;99.90
57652;DHT22;43480;53.116;6.734;2022-07-21T13:00:24;24.80;99.90
57652;DHT22;43480;53.116;6.734;2022-07-21T13:02:54;24.60;99.90
57652;DHT22;43480;53.116;6.734;2022-07-21T13:05:19;24.50;99.90
57652;DHT22;43480;53.116;6.734;2022-07-21T13:07:45;24.30;99.90
57652;DHT22;43480;53.116;6.734;2022-07-21T13:10:11;24.10;99.90
57652;DHT22;43480;53.116;6.734;2022-07-21T13:12:37;23.80;99.90
57652;DHT22;43480;53.116;6.734;2022-07-21T13:15:03;23.60;99.90
57652;DHT22;43480;53.116;6.734;2022-07-21T13:17:28;23.40;99.90
57652;DHT22;43480;53.116;6.734;2022-07-21T13:19:54;23.20;99.90
57652;DHT22;43480;53.116;6.734;2022-07-21T13:22:20;23.00;99.90
57652;DHT22;43480;53.116;6.734;2022-07-21T13:24:45;22.70;99.90
57652;DHT22;43480;53.116;6.734;2022-07-21T13:27:11;22.50;99.90
57652;DHT22;43480;53.116;6.734;2022-07-21T13:29:36;22.20;99.90
57652;DHT22;43480;53.116;6.734;2022-07-21T13:32:02;22.00;99.90
57652;DHT22;43480;53.116;6.734;2022-07-21T13:34:28;21.80;99.90
57652;DHT22;43480;53.116;6.734;2022-07-21T13:36:53;21.70;99.90
57652;DHT22;43480;53.116;6.734;2022-07-21T13:39:18;21.60;99.90
57652;DHT22;43480;53.116;6.734;2022-07-21T13:41:45;21.30;99.90
57652;DHT22;43480;53.116;6.734;2022-07-21T13:44:10;21.10;99.90
57652;DHT22;43480;53.116;6.734;2022-07-21T13:46:36;20.90;99.90
57652;DHT22;43480;53.116;6.734;2022-07-21T13:49:01;20.70;99.90
57652;DHT22;43480;53.116;6.734;2022-07-21T13:51:27;20.60;99.90
57652;DHT22;43480;53.116;6.734;2022-07-21T13:53:52;20.50;99.90
57652;DHT22;43480;53.116;6.734;2022-07-21T13:56:18;20.50;99.90
57652;DHT22;43480;53.116;6.734;2022-07-21T13:58:44;20.50;99.90
57652;DHT22;43480;53.116;6.734;2022-07-21T14:01:10;20.50;99.90
57652;DHT22;43480;53.116;6.734;2022-07-21T14:03:36;20.50;99.90
57652;DHT22;43480;53.116;6.734;2022-07-21T14:06:02;20.60;99.90
57652;DHT22;43480;53.116;6.734;2022-07-21T14:08:27;20.70;99.90
57652;DHT22;43480;53.116;6.734;2022-07-21T14:10:53;20.80;99.90
57652;DHT22;43480;53.116;6.734;2022-07-21T14:13:19;20.90;99.90
57652;DHT22;43480;53.116;6.734;2022-07-21T14:15:44;21.00;99.90
57652;DHT22;43480;53.116;6.734;2022-07-21T14:18:10;21.10;99.90
57652;DHT22;43480;53.116;6.734;2022-07-21T14:20:35;21.20;99.90
57652;DHT22;43480;53.116;6.734;2022-07-21T14:23:02;21.30;99.90
57652;DHT22;43480;53.116;6.734;2022-07-21T14:25:27;21.40;99.90
57652;DHT22;43480;53.116;6.734;2022-07-21T14:27:55;21.50;99.90
57652;DHT22;43480;53.116;6.734;2022-07-21T14:30:21;21.50;99.90
57652;DHT22;43480;53.116;6.734;2022-07-21T14:32:47;21.60;99.90
57652;DHT22;43480;53.116;6.734;2022-07-21T14:35:13;21.50;99.90
57652;DHT22;43480;53.116;6.734;2022-07-21T14:37:44;21.50;99.90
57652;DHT22;43480;53.116;6.734;2022-07-21T14:40:11;21.50;99.90
57652;DHT22;43480;53.116;6.734;2022-07-21T14:42:37;21.40;99.90
57652;DHT22;43480;53.116;6.734;2022-07-21T14:45:04;21.30;99.90
57652;DHT22;43480;53.116;6.734;2022-07-21T14:47:30;21.20;99.90
57652;DHT22;43480;53.116;6.734;2022-07-21T14:49:55;21.10;99.90
57652;DHT22;43480;53.116;6.734;2022-07-21T14:52:21;20.90;99.90
57652;DHT22;43480;53.116;6.734;2022-07-21T14:54:47;20.70;99.90
57652;DHT22;43480;53.116;6.734;2022-07-21T14:57:12;20.60;99.90
57652;DHT22;43480;53.116;6.734;2022-07-21T14:59:38;20.50;99.90
57652;DHT22;43480;53.116;6.734;2022-07-21T15:02:03;20.50;99.90
57652;DHT22;43480;53.116;6.734;2022-07-21T15:04:29;20.40;99.90
57652;DHT22;43480;53.116;6.734;2022-07-21T15:06:54;20.40;99.90
57652;DHT22;43480;53.116;6.734;2022-07-21T15:09:20;20.50;99.90
57652;DHT22;43480;53.116;6.734;2022-07-21T15:11:45;20.50;99.90
57652;DHT22;43480;53.116;6.734;2022-07-21T15:14:11;20.60;99.90
57652;DHT22;43480;53.116;6.734;2022-07-21T15:16:37;20.60;99.90
57652;DHT22;43480;53.116;6.734;2022-07-21T15:19:02;20.60;99.90
57652;DHT22;43480;53.116;6.734;2022-07-21T15:21:28;20.70;99.90
57652;DHT22;43480;53.116;6.734;2022-07-21T15:23:53;20.70;99.90
57652;DHT22;43480;53.116;6.734;2022-07-21T15:26:19;20.80;99.90
57652;DHT22;43480;53.116;6.734;2022-07-21T15:28:44;20.90;99.90
57652;DHT22;43480;53.116;6.734;2022-07-21T15:31:10;21.00;99.90
57652;DHT22;43480;53.116;6.734;2022-07-21T15:33:35;21.20;99.90
57652;DHT22;43480;53.116;6.734;2022-07-21T15:36:02;21.60;99.90
57652;DHT22;43480;53.116;6.734;2022-07-21T15:38:27;21.80;99.90
57652;DHT22;43480;53.116;6.734;2022-07-21T15:40:53;21.80;99.90
57652;DHT22;43480;53.116;6.734;2022-07-21T15:43:18;21.60;99.90
57652;DHT22;43480;53.116;6.734;2022-07-21T15:45:45;21.50;99.90
57652;DHT22;43480;53.116;6.734;2022-07-21T15:48:10;21.40;99.90
57652;DHT22;43480;53.116;6.734;2022-07-21T15:50:36;21.40;99.90
57652;DHT22;43480;53.116;6.734;2022-07-21T15:53:02;21.40;99.90